createdAt,value
2023-02-28T00:01:15.422Z,101946.34
2023-02-28T00:03:42.899Z,101936.94
2023-02-28T00:06:10.771Z,101954.13
2023-02-28T00:08:39.023Z,101948.38
2023-02-28T00:11:14.586Z,101956.19
2023-02-28T00:13:47.390Z,101961.16
2023-02-28T00:16:18.146Z,101956.09
2023-02-28T00:18:45.705Z,101949.16
2023-02-28T00:21:12.821Z,101936.31
2023-02-28T00:23:39.933Z,101957.91
2023-02-28T00:26:07.118Z,101959.00
2023-02-28T00:28:34.211Z,101953.91
2023-02-28T00:31:01.388Z,101961.63
2023-02-28T00:33:30.177Z,101957.00
2023-02-28T00:36:09.776Z,101962.34
2023-02-28T00:38:38.201Z,101963.63
2023-02-28T00:41:06.034Z,101962.22
2023-02-28T00:43:38.650Z,101965.09
2023-02-28T00:46:06.361Z,101948.09
2023-02-28T00:48:33.866Z,101963.16
2023-02-28T00:51:01.378Z,101952.38
2023-02-28T00:53:28.869Z,101969.00
2023-02-28T00:55:58.481Z,101965.78
2023-02-28T00:58:27.236Z,101966.66
2023-02-28T01:00:55.001Z,101963.16
2023-02-28T01:03:23.793Z,101958.44
2023-02-28T01:05:51.397Z,101960.19
2023-02-28T01:08:18.738Z,101962.72
2023-02-28T01:10:45.788Z,101960.75
2023-02-28T01:13:13.509Z,101955.69
2023-02-28T01:15:44.858Z,101948.63
2023-02-28T01:18:12.829Z,101954.69
2023-02-28T01:20:40.296Z,101949.50
2023-02-28T01:23:07.527Z,101945.13
2023-02-28T01:25:38.680Z,101950.63
2023-02-28T01:28:06.979Z,101950.63
2023-02-28T01:30:35.109Z,101949.97
2023-02-28T01:33:02.517Z,101945.56
2023-02-28T01:35:29.704Z,101948.22
2023-02-28T01:38:00.980Z,101937.28
2023-02-28T01:40:31.940Z,101945.91
2023-02-28T01:42:59.336Z,101951.53
2023-02-28T01:45:35.629Z,101940.97
2023-02-28T01:48:07.097Z,101942.75
2023-02-28T01:50:40.061Z,101947.81
2023-02-28T01:53:11.853Z,101946.03
2023-02-28T01:55:40.971Z,101949.16
2023-02-28T01:58:10.326Z,101954.22
2023-02-28T02:00:37.653Z,101948.94
2023-02-28T02:03:12.069Z,101942.09
2023-02-28T02:05:41.666Z,101947.94
2023-02-28T02:08:15.734Z,101950.28
2023-02-28T02:11:04.287Z,101950.47
2023-02-28T02:13:34.235Z,101947.16
2023-02-28T02:16:49.017Z,101942.47
2023-02-28T02:19:37.448Z,101949.19
2023-02-28T02:22:46.472Z,101947.69
2023-02-28T02:25:33.646Z,101955.16
2023-02-28T02:28:28.733Z,101953.06
2023-02-28T02:31:18.835Z,101956.03
2023-02-28T02:34:04.762Z,101949.97
2023-02-28T02:36:43.705Z,101958.44
2023-02-28T02:39:15.713Z,101955.13
2023-02-28T02:41:52.352Z,101958.56
2023-02-28T02:44:46.834Z,101952.31
2023-02-28T02:47:20.259Z,101950.88
2023-02-28T02:50:00.634Z,101951.41
2023-02-28T02:52:54.888Z,101946.94
2023-02-28T02:55:24.419Z,101953.84
2023-02-28T02:58:03.591Z,101950.09
2023-02-28T03:00:38.906Z,101943.28
2023-02-28T03:03:09.057Z,101948.56
2023-02-28T03:05:49.128Z,101940.88
2023-02-28T03:08:17.439Z,101937.53
2023-02-28T03:10:49.670Z,101943.72
2023-02-28T03:13:45.782Z,101949.66
2023-02-28T03:16:31.059Z,101944.59
2023-02-28T03:19:16.490Z,101945.16
2023-02-28T03:21:46.790Z,101947.91
2023-02-28T03:24:35.708Z,101948.78
2023-02-28T03:27:13.204Z,101946.81
2023-02-28T03:29:58.256Z,101933.81
2023-02-28T03:32:34.600Z,101955.41
2023-02-28T03:35:09.569Z,101963.97
2023-02-28T03:37:39.993Z,101958.59
2023-02-28T03:40:15.424Z,101964.97
2023-02-28T03:42:45.737Z,101963.56
2023-02-28T03:45:18.023Z,101970.59
2023-02-28T03:47:54.713Z,101960.91
2023-02-28T03:50:26.119Z,101957.63
2023-02-28T03:53:07.981Z,101961.34
2023-02-28T03:55:42.750Z,101965.97
2023-02-28T03:58:19.938Z,101963.78
2023-02-28T04:00:57.100Z,101964.56
2023-02-28T04:03:24.819Z,101970.38
2023-02-28T04:05:56.817Z,101973.91
2023-02-28T04:08:24.057Z,101972.38
2023-02-28T04:10:59.013Z,101974.69
2023-02-28T04:13:26.117Z,101970.16
2023-02-28T04:15:53.377Z,101970.16
2023-02-28T04:18:20.507Z,101964.66
2023-02-28T04:20:47.539Z,101977.19
2023-02-28T04:23:14.724Z,101980.28
2023-02-28T04:25:42.069Z,101969.59
2023-02-28T04:28:09.190Z,101982.25
2023-02-28T04:30:36.354Z,101982.03
2023-02-28T04:33:03.575Z,101984.00
2023-02-28T04:35:30.641Z,101982.25
2023-02-28T04:37:58.059Z,101993.72
2023-02-28T04:40:25.254Z,101992.16
2023-02-28T04:42:52.306Z,102002.06
2023-02-28T04:45:19.417Z,101999.97
2023-02-28T04:47:46.593Z,101991.16
2023-02-28T04:50:13.666Z,101982.34
2023-02-28T04:52:40.811Z,101991.94
2023-02-28T04:55:08.508Z,101989.28
2023-02-28T04:57:35.575Z,102004.25
2023-02-28T05:00:02.726Z,102008.53
2023-02-28T05:02:29.861Z,102004.47
2023-02-28T05:04:57.033Z,102005.56
2023-02-28T05:07:24.212Z,101996.09
2023-02-28T05:09:51.277Z,102003.09
2023-02-28T05:12:18.388Z,102009.31
2023-02-28T05:14:45.396Z,102018.13
2023-02-28T05:17:12.486Z,102017.91
2023-02-28T05:19:39.569Z,102017.19
2023-02-28T05:22:14.458Z,102013.44
2023-02-28T05:24:41.569Z,102012.91
2023-02-28T05:27:09.287Z,102022.03
2023-02-28T05:29:42.715Z,102020.28
2023-02-28T05:32:12.404Z,102011.69
2023-02-28T05:34:40.728Z,102017.31
2023-02-28T05:37:13.537Z,102015.22
2023-02-28T05:39:40.967Z,102029.63
2023-02-28T05:42:08.335Z,102023.56
2023-02-28T05:44:35.481Z,102030.63
2023-02-28T05:47:02.608Z,102016.97
2023-02-28T05:49:30.135Z,102020.94
2023-02-28T05:51:57.329Z,102027.09
2023-02-28T05:54:24.452Z,102033.91
2023-02-28T05:56:51.520Z,102027.97
2023-02-28T05:59:18.606Z,102017.19
2023-02-28T06:02:17.440Z,102028.38
2023-02-28T06:04:44.698Z,102027.94
2023-02-28T06:07:11.856Z,102035.41
2023-02-28T06:09:39.053Z,102033.66
2023-02-28T06:12:08.386Z,102036.53
2023-02-28T06:14:35.638Z,102029.91
2023-02-28T06:17:04.038Z,102026.22
2023-02-28T06:19:31.741Z,102031.94
2023-02-28T06:21:59.631Z,102038.41
2023-02-28T06:24:31.587Z,102031.69
2023-02-28T06:27:00.147Z,102034.22
2023-02-28T06:29:27.396Z,102034.22
2023-02-28T06:31:54.548Z,102041.84
2023-02-28T06:34:21.760Z,102043.19
2023-02-28T06:36:52.926Z,102043.19
2023-02-28T06:39:20.546Z,102043.19
2023-02-28T06:41:55.313Z,102029.09
2023-02-28T06:44:24.291Z,102043.44
2023-02-28T06:46:51.591Z,102044.75
2023-02-28T06:49:18.964Z,102040.56
2023-02-28T06:51:46.363Z,102049.59
2023-02-28T06:54:14.179Z,102040.59
2023-02-28T06:56:41.464Z,102039.97
2023-02-28T06:59:08.649Z,102058.91
2023-02-28T07:01:35.945Z,102050.75
2023-02-28T07:04:04.151Z,102055.84
2023-02-28T07:06:31.656Z,102048.56
2023-02-28T07:08:58.735Z,102046.38
2023-02-28T07:11:28.954Z,102051.13
2023-02-28T07:13:57.572Z,102052.31
2023-02-28T07:16:26.227Z,102052.53
2023-02-28T07:18:56.703Z,102049.66
2023-02-28T07:21:23.883Z,102041.31
2023-02-28T07:23:51.094Z,102041.41
2023-02-28T07:26:20.221Z,102045.13
2023-02-28T07:28:49.028Z,102031.34
2023-02-28T07:31:16.893Z,102043.03
2023-02-28T07:33:44.530Z,102033.88
2023-02-28T07:36:16.487Z,102047.41
2023-02-28T07:38:48.104Z,102052.88
2023-02-28T07:41:17.736Z,102044.06
2023-02-28T07:43:45.769Z,102045.34
2023-02-28T07:46:18.344Z,102046.66
2023-02-28T07:48:46.300Z,102040.94
2023-02-28T07:51:13.889Z,102041.13
2023-02-28T07:53:41.116Z,102038.22
2023-02-28T07:56:08.582Z,102037.66
2023-02-28T07:58:35.827Z,102040.81
2023-02-28T08:01:10.876Z,102046.53
2023-02-28T08:03:39.321Z,102039.19
2023-02-28T08:06:08.357Z,102036.59
2023-02-28T08:08:35.578Z,102024.19
2023-02-28T08:11:04.513Z,102037.44
2023-02-28T08:13:32.207Z,102028.16
2023-02-28T08:15:59.752Z,102032.19
2023-02-28T08:18:26.903Z,102030.59
2023-02-28T08:20:54.017Z,102041.06
2023-02-28T08:23:21.198Z,102046.44
2023-02-28T08:25:55.956Z,102030.84
2023-02-28T08:28:26.034Z,102050.44
2023-02-28T08:30:54.960Z,102049.78
2023-02-28T08:33:22.599Z,102052.44
2023-02-28T08:35:50.142Z,102049.13
2023-02-28T08:38:17.295Z,102054.41
2023-02-28T08:40:44.396Z,102064.50
2023-02-28T08:43:11.664Z,102070.41
2023-02-28T08:45:39.070Z,102054.78
2023-02-28T08:48:06.328Z,102073.28
2023-02-28T08:50:33.682Z,102069.50
2023-02-28T08:53:01.227Z,102074.34
2023-02-28T08:55:28.334Z,102073.34
2023-02-28T08:57:56.183Z,102046.44
2023-02-28T09:00:23.800Z,102068.19
2023-02-28T09:02:50.962Z,102076.69
2023-02-28T09:05:18.043Z,102061.03
2023-02-28T09:07:45.175Z,102065.22
2023-02-28T09:10:12.380Z,102068.25
2023-02-28T09:12:39.582Z,102064.56
2023-02-28T09:15:07.502Z,102055.94
2023-02-28T09:17:34.670Z,102060.22
2023-02-28T09:20:01.758Z,102051.91
2023-02-28T09:22:29.008Z,102053.34
2023-02-28T09:24:56.301Z,102049.53
2023-02-28T09:27:23.459Z,102053.19
2023-02-28T09:29:50.733Z,102056.69
2023-02-28T09:32:19.301Z,102047.75
2023-02-28T09:34:46.406Z,102046.09
2023-02-28T09:37:13.562Z,102044.47
2023-02-28T09:39:40.734Z,102045.19
2023-02-28T09:42:20.135Z,102046.94
2023-02-28T09:44:49.116Z,102047.50
2023-02-28T09:47:27.612Z,102042.09
2023-02-28T09:49:57.742Z,102054.19
2023-02-28T09:52:34.052Z,102049.59
2023-02-28T09:55:23.564Z,102039.38
2023-02-28T09:57:53.255Z,102041.41
2023-02-28T10:00:31.338Z,102044.28
2023-02-28T10:03:36.454Z,102045.09
2023-02-28T10:06:18.404Z,102043.66
2023-02-28T10:09:10.455Z,102049.88
2023-02-28T10:11:40.869Z,102042.50
2023-02-28T10:14:26.321Z,102051.28
2023-02-28T10:17:09.930Z,102046.47
2023-02-28T10:19:45.975Z,102052.06
2023-02-28T10:22:13.091Z,102052.06
2023-02-28T10:24:55.170Z,102050.28
2023-02-28T10:27:29.315Z,102048.97
2023-02-28T10:30:00.506Z,102044.25
2023-02-28T10:32:34.863Z,102038.91
2023-02-28T10:35:17.895Z,102034.81
2023-02-28T10:37:48.361Z,102030.50
2023-02-28T10:40:21.727Z,102026.34
2023-02-28T10:43:14.636Z,102017.94
2023-02-28T10:45:55.454Z,102022.56
2023-02-28T10:48:22.472Z,102015.16
2023-02-28T10:50:51.012Z,102017.13
2023-02-28T10:53:27.192Z,102013.34
2023-02-28T10:56:14.309Z,102006.91
2023-02-28T10:59:00.068Z,102011.34
2023-02-28T11:01:33.755Z,102015.69
2023-02-28T11:04:01.312Z,102015.81
2023-02-28T11:06:33.392Z,102002.28
2023-02-28T11:09:07.268Z,102004.09
2023-02-28T11:11:44.963Z,101997.22
2023-02-28T11:14:25.499Z,101995.59
2023-02-28T11:16:53.785Z,101996.63
2023-02-28T11:19:27.301Z,101994.28
2023-02-28T11:22:01.571Z,101994.28
2023-02-28T11:24:32.858Z,101989.28
2023-02-28T11:27:00.007Z,101990.47
2023-02-28T11:29:30.569Z,101982.84
2023-02-28T11:32:14.808Z,101988.22
2023-02-28T11:34:43.089Z,101981.63
2023-02-28T11:37:16.735Z,101985.22
2023-02-28T11:39:45.216Z,101984.44
2023-02-28T11:42:40.472Z,101983.03
2023-02-28T11:45:17.171Z,101984.03
2023-02-28T11:47:57.233Z,101982.84
2023-02-28T11:50:43.646Z,101989.78
2023-02-28T11:53:31.782Z,101990.25
2023-02-28T11:56:20.451Z,101986.00
2023-02-28T11:58:55.450Z,101983.53
2023-02-28T12:01:39.750Z,101981.00
2023-02-28T12:04:25.236Z,101964.66
2023-02-28T12:07:09.639Z,101956.13
2023-02-28T12:09:51.145Z,101957.31
2023-02-28T12:12:58.625Z,101956.56
2023-02-28T12:16:03.381Z,101951.50
2023-02-28T12:18:53.220Z,101960.19
2023-02-28T12:21:46.245Z,101955.09
2023-02-28T12:24:31.431Z,101955.81
2023-02-28T12:27:04.011Z,101953.19
2023-02-28T12:29:58.214Z,101958.25
2023-02-28T12:32:32.768Z,101953.19
2023-02-28T12:35:07.653Z,101950.69
2023-02-28T12:37:47.379Z,101949.00
2023-02-28T12:40:20.309Z,101947.28
2023-02-28T12:43:00.113Z,101951.31
2023-02-28T12:45:57.044Z,101945.91
2023-02-28T12:48:41.740Z,101948.41
2023-02-28T12:51:09.835Z,101947.53
2023-02-28T12:53:50.985Z,101944.16
2023-02-28T12:56:29.337Z,101937.13
2023-02-28T12:59:00.692Z,101941.59
2023-02-28T13:01:35.351Z,101934.03
2023-02-28T13:04:24.373Z,101930.34
2023-02-28T13:07:28.566Z,101935.53
2023-02-28T13:09:59.097Z,101922.47
2023-02-28T13:12:28.073Z,101925.28
2023-02-28T13:15:05.609Z,101928.78
2023-02-28T13:17:33.689Z,101934.91
2023-02-28T13:20:01.538Z,101934.03
2023-02-28T13:22:46.749Z,101922.81
2023-02-28T13:25:35.575Z,101923.78
2023-02-28T13:28:09.693Z,101908.19
2023-02-28T13:30:59.845Z,101915.03
2023-02-28T13:33:40.134Z,101909.91
2023-02-28T13:36:11.879Z,101902.94
2023-02-28T13:38:49.067Z,101901.03
2023-02-28T13:41:37.301Z,101897.69
2023-02-28T13:44:18.873Z,101898.53
2023-02-28T13:46:49.614Z,101890.91
2023-02-28T13:49:27.142Z,101893.44
2023-02-28T13:52:15.361Z,101890.00
2023-02-28T13:55:25.148Z,101892.41
2023-02-28T13:58:01.256Z,101884.59
2023-02-28T14:00:55.946Z,101882.84
2023-02-28T14:03:56.685Z,101871.66
2023-02-28T14:06:29.342Z,101872.34
2023-02-28T14:09:21.614Z,101876.53
2023-02-28T14:11:49.022Z,101865.91
2023-02-28T14:14:37.493Z,101866.69
2023-02-28T14:17:08.597Z,101864.13
2023-02-28T14:19:38.451Z,101862.25
2023-02-28T14:22:41.243Z,101863.88
2023-02-28T14:25:25.872Z,101857.00
2023-02-28T14:28:15.285Z,101851.72
2023-02-28T14:31:10.853Z,101852.63
2023-02-28T14:34:13.986Z,101850.13
2023-02-28T14:36:43.595Z,101835.97
2023-02-28T14:39:18.001Z,101848.13
2023-02-28T14:41:46.218Z,101846.22
2023-02-28T14:44:23.818Z,101847.81
2023-02-28T14:46:56.309Z,101845.94
2023-02-28T14:49:29.750Z,101845.94
2023-02-28T14:52:25.572Z,101848.38
2023-02-28T14:54:59.288Z,101844.03
2023-02-28T14:57:34.029Z,101845.53
2023-02-28T15:00:24.362Z,101842.78
2023-02-28T15:02:51.413Z,101857.09
2023-02-28T15:05:31.314Z,101850.09
2023-02-28T15:08:14.338Z,101844.97
2023-02-28T15:11:28.152Z,101843.91
2023-02-28T15:13:59.230Z,101842.94
2023-02-28T15:16:33.403Z,101839.38
2023-02-28T15:19:14.297Z,101842.53
2023-02-28T15:21:46.702Z,101844.13
2023-02-28T15:24:25.799Z,101850.84
2023-02-28T15:26:59.223Z,101847.38
2023-02-28T15:29:29.288Z,101849.72
2023-02-28T15:32:06.332Z,101856.56
2023-02-28T15:34:43.299Z,101853.81
2023-02-28T15:37:34.358Z,101857.88
2023-02-28T15:40:42.176Z,101854.31
2023-02-28T15:43:24.246Z,101850.53
2023-02-28T15:46:01.404Z,101858.97
2023-02-28T15:48:39.063Z,101852.63
2023-02-28T15:51:22.036Z,101865.34
2023-02-28T15:54:02.306Z,101863.44
2023-02-28T15:56:39.475Z,101862.13
2023-02-28T15:59:08.887Z,101852.41
2023-02-28T16:01:39.531Z,101850.50
2023-02-28T16:04:15.246Z,101844.31
2023-02-28T16:06:43.441Z,101840.50
2023-02-28T16:09:14.723Z,101853.75
2023-02-28T16:11:48.323Z,101849.78
2023-02-28T16:14:24.690Z,101835.38
2023-02-28T16:16:54.921Z,101850.31
2023-02-28T16:19:22.302Z,101841.94
2023-02-28T16:21:50.056Z,101836.78
2023-02-28T16:24:17.207Z,101846.09
2023-02-28T16:26:49.442Z,101849.44
2023-02-28T16:29:25.383Z,101844.91
2023-02-28T16:31:52.536Z,101841.06
2023-02-28T16:34:19.730Z,101847.44
2023-02-28T16:36:49.735Z,101850.28
2023-02-28T16:39:17.057Z,101851.66
2023-02-28T16:41:46.560Z,101857.91
2023-02-28T16:44:25.402Z,101853.34
2023-02-28T16:46:52.496Z,101856.56
2023-02-28T16:49:19.702Z,101855.31
2023-02-28T16:51:46.863Z,101858.50
2023-02-28T16:54:14.041Z,101850.19
2023-02-28T16:56:46.053Z,101862.56
2023-02-28T16:59:14.770Z,101864.69
2023-02-28T17:01:41.914Z,101868.38
2023-02-28T17:04:12.003Z,101866.47
2023-02-28T17:06:39.310Z,101867.84
2023-02-28T17:09:06.630Z,101869.25
2023-02-28T17:11:34.023Z,101872.44
2023-02-28T17:14:01.226Z,101856.44
2023-02-28T17:16:33.830Z,101880.31
2023-02-28T17:19:03.749Z,101879.19
2023-02-28T17:21:32.255Z,101876.34
2023-02-28T17:23:59.971Z,101878.66
2023-02-28T17:26:29.000Z,101872.22
2023-02-28T17:28:58.208Z,101876.41
2023-02-28T17:31:27.109Z,101882.41
2023-02-28T17:33:55.546Z,101876.25
2023-02-28T17:36:26.917Z,101879.22
2023-02-28T17:38:56.375Z,101879.53
2023-02-28T17:41:23.833Z,101883.50
2023-02-28T17:43:51.785Z,101871.56
2023-02-28T17:46:24.340Z,101869.69
2023-02-28T17:48:53.345Z,101865.31
2023-02-28T17:51:22.544Z,101856.53
2023-02-28T17:53:50.317Z,101852.13
2023-02-28T17:56:24.384Z,101861.44
2023-02-28T17:58:53.581Z,101852.28
2023-02-28T18:01:22.159Z,101867.03
2023-02-28T18:03:50.054Z,101869.84
2023-02-28T18:06:28.730Z,101860.44
2023-02-28T18:08:56.254Z,101858.63
2023-02-28T18:11:24.555Z,101861.06
2023-02-28T18:13:54.419Z,101850.91
2023-02-28T18:16:23.103Z,101840.19
2023-02-28T18:18:51.026Z,101852.28
2023-02-28T18:21:18.257Z,101839.78
2023-02-28T18:23:48.616Z,101845.28
2023-02-28T18:26:17.586Z,101839.97
2023-02-28T18:28:45.625Z,101839.59
2023-02-28T18:31:16.334Z,101839.25
2023-02-28T18:33:45.428Z,101833.88
2023-02-28T18:36:12.456Z,101831.34
2023-02-28T18:38:40.202Z,101830.63
2023-02-28T18:41:08.530Z,101833.38
2023-02-28T18:43:38.660Z,101834.34
2023-02-28T18:46:06.328Z,101824.00
2023-02-28T18:48:33.826Z,101837.69
2023-02-28T18:51:07.012Z,101825.75
2023-02-28T18:53:36.407Z,101819.50
2023-02-28T18:56:04.747Z,101821.16
2023-02-28T18:58:33.729Z,101816.78
2023-02-28T19:01:04.937Z,101813.06
2023-02-28T19:03:32.180Z,101826.19
2023-02-28T19:06:00.656Z,101823.81
2023-02-28T19:08:28.288Z,101821.28
2023-02-28T19:10:55.657Z,101818.72
2023-02-28T19:13:22.695Z,101818.81
2023-02-28T19:15:49.990Z,101830.63
2023-02-28T19:18:17.131Z,101830.63
2023-02-28T19:20:44.134Z,101829.06
2023-02-28T19:23:13.203Z,101829.25
2023-02-28T19:25:43.349Z,101832.59
2023-02-28T19:28:10.456Z,101834.16
2023-02-28T19:30:38.144Z,101833.97
2023-02-28T19:33:05.344Z,101814.66
2023-02-28T19:35:32.531Z,101835.16
2023-02-28T19:37:59.984Z,101828.13
2023-02-28T19:40:27.232Z,101835.69
2023-02-28T19:42:54.374Z,101827.94
2023-02-28T19:45:21.540Z,101827.94
2023-02-28T19:47:48.682Z,101834.41
2023-02-28T19:50:16.467Z,101835.38
2023-02-28T19:52:43.696Z,101843.88
2023-02-28T19:55:11.409Z,101837.91
2023-02-28T19:57:38.532Z,101841.44
2023-02-28T20:00:06.260Z,101834.59
2023-02-28T20:02:39.543Z,101844.56
2023-02-28T20:05:07.882Z,101841.06
2023-02-28T20:07:35.939Z,101846.16
2023-02-28T20:10:03.148Z,101846.03
2023-02-28T20:12:30.247Z,101837.19
2023-02-28T20:14:57.527Z,101829.06
2023-02-28T20:17:25.110Z,101853.97
2023-02-28T20:19:52.149Z,101861.00
2023-02-28T20:22:19.338Z,101862.94
2023-02-28T20:24:48.883Z,101865.13
2023-02-28T20:27:16.211Z,101866.88
2023-02-28T20:29:43.363Z,101859.06
2023-02-28T20:32:10.644Z,101860.91
2023-02-28T20:34:37.800Z,101859.94
2023-02-28T20:37:04.974Z,101857.09
2023-02-28T20:39:32.087Z,101850.06
2023-02-28T20:41:59.194Z,101859.25
2023-02-28T20:44:26.506Z,101849.66
2023-02-28T20:46:53.634Z,101853.00
2023-02-28T20:49:21.062Z,101853.97
2023-02-28T20:51:48.261Z,101864.03
2023-02-28T20:54:16.507Z,101848.78
2023-02-28T20:56:43.694Z,101858.47
2023-02-28T20:59:12.569Z,101856.91
2023-02-28T21:01:40.941Z,101847.63
2023-02-28T21:04:08.413Z,101852.63
2023-02-28T21:06:43.370Z,101856.91
2023-02-28T21:09:13.629Z,101850.06
2023-02-28T21:11:41.508Z,101850.25
2023-02-28T21:14:13.098Z,101851.63
2023-02-28T21:16:40.655Z,101854.75
2023-02-28T21:19:07.858Z,101852.81
2023-02-28T21:21:40.217Z,101845.97
2023-02-28T21:24:07.762Z,101841.47
2023-02-28T21:26:34.820Z,101849.28
2023-02-28T21:29:03.135Z,101848.41
2023-02-28T21:31:34.300Z,101849.09
2023-02-28T21:34:03.269Z,101852.44
2023-02-28T21:36:33.251Z,101852.25
2023-02-28T21:39:04.184Z,101848.72
2023-02-28T21:41:31.454Z,101857.19
2023-02-28T21:43:58.675Z,101852.00
2023-02-28T21:46:29.384Z,101855.34
2023-02-28T21:48:57.571Z,101862.16
2023-02-28T21:51:28.234Z,101860.81
2023-02-28T21:53:57.214Z,101862.78
2023-02-28T21:56:26.637Z,101857.69
2023-02-28T21:59:00.800Z,101867.25
2023-02-28T22:01:37.136Z,101864.63
2023-02-28T22:04:07.423Z,101854.97
2023-02-28T22:06:36.415Z,101857.88
2023-02-28T22:09:06.270Z,101853.75
2023-02-28T22:11:34.746Z,101869.19
2023-02-28T22:14:02.467Z,101870.25
2023-02-28T22:16:37.928Z,101867.84
2023-02-28T22:19:15.839Z,101857.09
2023-02-28T22:21:43.180Z,101867.63
2023-02-28T22:24:11.331Z,101858.06
2023-02-28T22:26:38.562Z,101855.31
2023-02-28T22:29:06.373Z,101853.56
2023-02-28T22:31:36.150Z,101847.34
2023-02-28T22:34:06.993Z,101851.06
2023-02-28T22:36:34.885Z,101853.00
2023-02-28T22:39:02.364Z,101843.03
2023-02-28T22:41:30.159Z,101853.41
2023-02-28T22:44:00.384Z,101856.91
2023-02-28T22:46:29.696Z,101858.69
2023-02-28T22:49:01.902Z,101855.16
2023-02-28T22:51:30.844Z,101852.44
2023-02-28T22:53:58.801Z,101861.78
2023-02-28T22:56:28.161Z,101857.59
2023-02-28T22:58:57.812Z,101847.91
2023-02-28T23:01:27.682Z,101847.72
2023-02-28T23:03:55.210Z,101840.91
2023-02-28T23:06:31.071Z,101835.81
2023-02-28T23:09:01.965Z,101834.47
2023-02-28T23:11:32.218Z,101836.00
2023-02-28T23:13:59.902Z,101844.69
2023-02-28T23:16:38.694Z,101853.19
2023-02-28T23:19:11.006Z,101852.78
2023-02-28T23:21:39.450Z,101822.94
2023-02-28T23:24:11.545Z,101857.88
2023-02-28T23:26:44.961Z,101859.44
2023-02-28T23:29:13.333Z,101862.06
2023-02-28T23:31:40.984Z,101863.81
2023-02-28T23:34:08.414Z,101866.47
2023-02-28T23:36:35.620Z,101846.94
2023-02-28T23:39:02.773Z,101871.75
2023-02-28T23:41:29.971Z,101857.69
2023-02-28T23:43:57.010Z,101870.19
2023-02-28T23:46:24.377Z,101862.47
2023-02-28T23:48:51.622Z,101865.13
2023-02-28T23:51:21.767Z,101847.72
2023-02-28T23:53:50.108Z,101854.56
2023-02-28T23:56:21.468Z,101859.84
2023-02-28T23:58:49.742Z,101852.13
